Terminal Aerodrome Forecast
Issued by NWS Cleveland, OH

Home | Current Version | Previous Version | Text Only | Print | Product List | Glossary Off
Versions: 1 2 3 4 5 6 7 8 9 10 11 12 13 14 15 16 17 18 19 20

000
FTUS41 KCLE 152325
TAFCLE
TAF
KCLE 152325Z 1600/1706 29015G29KT P6SM SCT021 BKN035
     FM160300 31015G25KT P6SM SCT017 BKN030
     FM160400 33015G25KT P6SM SCT017 BKN035
     FM161100 32010G18KT P6SM SCT017 BKN070
     FM161600 32011G19KT P6SM FEW025 SCT035
     FM162200 30007KT P6SM FEW035 SCT200
     FM170200 24004KT P6SM SCT080=

USA.gov is the U.S. government's official web portal to all federal, state and local government web resources and services.